sensor_id;sensor_type;location;lat;lon;timestamp;P1;durP1;ratioP1;P2;durP2;ratioP2
15915;SDS011;8057;47.830;-3.870;2022-12-20T00:01:55;25.30;;;6.90;;
15915;SDS011;8057;47.830;-3.870;2022-12-20T00:06:06;25.77;;;7.10;;
15915;SDS011;8057;47.830;-3.870;2022-12-20T00:10:21;31.97;;;7.27;;
15915;SDS011;8057;47.830;-3.870;2022-12-20T00:14:32;27.63;;;7.80;;
15915;SDS011;8057;47.830;-3.870;2022-12-20T00:18:42;28.30;;;7.23;;
15915;SDS011;8057;47.830;-3.870;2022-12-20T00:22:53;28.83;;;7.10;;
15915;SDS011;8057;47.830;-3.870;2022-12-20T00:27:05;32.13;;;8.20;;
15915;SDS011;8057;47.830;-3.870;2022-12-20T00:31:22;30.53;;;7.87;;
15915;SDS011;8057;47.830;-3.870;2022-12-20T00:35:35;33.60;;;8.03;;
15915;SDS011;8057;47.830;-3.870;2022-12-20T00:39:49;37.63;;;8.43;;
15915;SDS011;8057;47.830;-3.870;2022-12-20T00:44:07;34.60;;;8.10;;
15915;SDS011;8057;47.830;-3.870;2022-12-20T00:48:29;31.63;;;8.30;;
15915;SDS011;8057;47.830;-3.870;2022-12-20T00:52:41;30.27;;;7.37;;
15915;SDS011;8057;47.830;-3.870;2022-12-20T00:56:52;34.80;;;8.33;;
15915;SDS011;8057;47.830;-3.870;2022-12-20T01:01:04;26.17;;;7.70;;
15915;SDS011;8057;47.830;-3.870;2022-12-20T01:05:23;32.60;;;8.27;;
15915;SDS011;8057;47.830;-3.870;2022-12-20T01:09:35;37.23;;;7.07;;
15915;SDS011;8057;47.830;-3.870;2022-12-20T01:13:50;33.83;;;8.07;;
15915;SDS011;8057;47.830;-3.870;2022-12-20T01:18:08;33.73;;;8.13;;
15915;SDS011;8057;47.830;-3.870;2022-12-20T01:23:07;33.80;;;8.07;;
15915;SDS011;8057;47.830;-3.870;2022-12-20T01:27:16;33.83;;;8.30;;
15915;SDS011;8057;47.830;-3.870;2022-12-20T01:31:27;31.63;;;7.60;;
15915;SDS011;8057;47.830;-3.870;2022-12-20T01:35:43;27.50;;;6.63;;
15915;SDS011;8057;47.830;-3.870;2022-12-20T01:40:05;30.97;;;6.80;;
15915;SDS011;8057;47.830;-3.870;2022-12-20T01:49:10;26.83;;;6.87;;
15915;SDS011;8057;47.830;-3.870;2022-12-20T01:53:38;27.80;;;6.50;;
15915;SDS011;8057;47.830;-3.870;2022-12-20T01:57:50;30.00;;;7.60;;
15915;SDS011;8057;47.830;-3.870;2022-12-20T02:02:11;28.40;;;6.20;;
15915;SDS011;8057;47.830;-3.870;2022-12-20T02:06:31;25.93;;;6.47;;
15915;SDS011;8057;47.830;-3.870;2022-12-20T02:10:47;26.60;;;6.70;;
15915;SDS011;8057;47.830;-3.870;2022-12-20T02:15:20;31.80;;;7.37;;
15915;SDS011;8057;47.830;-3.870;2022-12-20T02:19:55;27.40;;;6.80;;
15915;SDS011;8057;47.830;-3.870;2022-12-20T02:24:40;33.60;;;8.00;;
15915;SDS011;8057;47.830;-3.870;2022-12-20T02:29:09;29.93;;;6.80;;
15915;SDS011;8057;47.830;-3.870;2022-12-20T02:38:02;25.50;;;6.93;;
15915;SDS011;8057;47.830;-3.870;2022-12-20T02:42:14;24.80;;;6.60;;
15915;SDS011;8057;47.830;-3.870;2022-12-20T02:46:28;28.40;;;7.17;;
15915;SDS011;8057;47.830;-3.870;2022-12-20T02:50:55;29.60;;;7.27;;
15915;SDS011;8057;47.830;-3.870;2022-12-20T02:55:13;34.33;;;8.00;;
15915;SDS011;8057;47.830;-3.870;2022-12-20T02:59:23;39.87;;;7.47;;
15915;SDS011;8057;47.830;-3.870;2022-12-20T03:03:39;30.40;;;7.97;;
15915;SDS011;8057;47.830;-3.870;2022-12-20T03:07:51;36.87;;;7.70;;
15915;SDS011;8057;47.830;-3.870;2022-12-20T03:12:01;29.77;;;6.90;;
15915;SDS011;8057;47.830;-3.870;2022-12-20T03:16:11;35.67;;;7.53;;
15915;SDS011;8057;47.830;-3.870;2022-12-20T03:20:22;32.17;;;8.00;;
15915;SDS011;8057;47.830;-3.870;2022-12-20T03:24:33;39.20;;;7.87;;
15915;SDS011;8057;47.830;-3.870;2022-12-20T03:28:43;27.57;;;7.50;;
15915;SDS011;8057;47.830;-3.870;2022-12-20T03:32:52;41.60;;;8.77;;
15915;SDS011;8057;47.830;-3.870;2022-12-20T03:37:01;49.03;;;10.20;;
15915;SDS011;8057;47.830;-3.870;2022-12-20T03:41:14;46.83;;;9.87;;
15915;SDS011;8057;47.830;-3.870;2022-12-20T03:45:23;30.47;;;7.17;;
15915;SDS011;8057;47.830;-3.870;2022-12-20T03:49:33;24.93;;;6.10;;
15915;SDS011;8057;47.830;-3.870;2022-12-20T03:53:44;28.43;;;6.70;;
15915;SDS011;8057;47.830;-3.870;2022-12-20T03:57:59;30.70;;;7.13;;
15915;SDS011;8057;47.830;-3.870;2022-12-20T04:02:12;28.23;;;6.77;;
15915;SDS011;8057;47.830;-3.870;2022-12-20T04:06:22;22.93;;;5.53;;
15915;SDS011;8057;47.830;-3.870;2022-12-20T04:10:35;34.50;;;7.20;;
15915;SDS011;8057;47.830;-3.870;2022-12-20T04:15:07;35.07;;;8.00;;
15915;SDS011;8057;47.830;-3.870;2022-12-20T04:19:18;39.97;;;7.57;;
15915;SDS011;8057;47.830;-3.870;2022-12-20T04:23:29;32.20;;;7.23;;
15915;SDS011;8057;47.830;-3.870;2022-12-20T04:27:39;32.27;;;5.80;;
15915;SDS011;8057;47.830;-3.870;2022-12-20T04:31:51;28.43;;;5.77;;
15915;SDS011;8057;47.830;-3.870;2022-12-20T04:36:02;34.27;;;6.43;;
15915;SDS011;8057;47.830;-3.870;2022-12-20T04:40:25;30.83;;;5.60;;
15915;SDS011;8057;47.830;-3.870;2022-12-20T04:44:34;25.57;;;4.67;;
15915;SDS011;8057;47.830;-3.870;2022-12-20T04:48:45;31.20;;;5.93;;
15915;SDS011;8057;47.830;-3.870;2022-12-20T04:53:05;31.23;;;6.33;;
15915;SDS011;8057;47.830;-3.870;2022-12-20T04:57:33;29.07;;;6.43;;
15915;SDS011;8057;47.830;-3.870;2022-12-20T05:01:43;30.70;;;6.50;;
15915;SDS011;8057;47.830;-3.870;2022-12-20T05:05:56;33.97;;;6.87;;
15915;SDS011;8057;47.830;-3.870;2022-12-20T05:10:06;31.50;;;6.93;;
15915;SDS011;8057;47.830;-3.870;2022-12-20T05:14:16;39.23;;;7.27;;
15915;SDS011;8057;47.830;-3.870;2022-12-20T05:18:25;38.23;;;7.47;;
15915;SDS011;8057;47.830;-3.870;2022-12-20T05:22:36;32.20;;;6.17;;
15915;SDS011;8057;47.830;-3.870;2022-12-20T05:27:03;43.47;;;7.50;;
15915;SDS011;8057;47.830;-3.870;2022-12-20T05:31:13;41.27;;;7.63;;
15915;SDS011;8057;47.830;-3.870;2022-12-20T05:35:23;41.73;;;8.53;;
15915;SDS011;8057;47.830;-3.870;2022-12-20T05:39:34;47.47;;;8.07;;
15915;SDS011;8057;47.830;-3.870;2022-12-20T05:43:44;41.60;;;7.70;;
15915;SDS011;8057;47.830;-3.870;2022-12-20T05:47:54;44.67;;;7.23;;
15915;SDS011;8057;47.830;-3.870;2022-12-20T05:52:04;37.37;;;7.17;;
15915;SDS011;8057;47.830;-3.870;2022-12-20T05:56:18;38.00;;;8.30;;
15915;SDS011;8057;47.830;-3.870;2022-12-20T06:00:46;26.70;;;6.53;;
15915;SDS011;8057;47.830;-3.870;2022-12-20T06:05:07;28.43;;;6.47;;
15915;SDS011;8057;47.830;-3.870;2022-12-20T06:09:58;24.17;;;5.97;;
15915;SDS011;8057;47.830;-3.870;2022-12-20T07:27:20;11.10;;;3.70;;
15915;SDS011;8057;47.830;-3.870;2022-12-20T07:40:58;9.73;;;2.27;;
15915;SDS011;8057;47.830;-3.870;2022-12-20T08:21:08;5.00;;;2.73;;
15915;SDS011;8057;47.830;-3.870;2022-12-20T08:25:21;8.27;;;3.23;;
15915;SDS011;8057;47.830;-3.870;2022-12-20T08:29:30;6.27;;;3.10;;
15915;SDS011;8057;47.830;-3.870;2022-12-20T08:33:39;9.10;;;3.80;;
15915;SDS011;8057;47.830;-3.870;2022-12-20T08:37:51;8.13;;;3.90;;
15915;SDS011;8057;47.830;-3.870;2022-12-20T08:42:01;3.97;;;2.70;;
15915;SDS011;8057;47.830;-3.870;2022-12-20T08:46:12;11.33;;;4.53;;
15915;SDS011;8057;47.830;-3.870;2022-12-20T08:50:22;5.43;;;3.27;;
15915;SDS011;8057;47.830;-3.870;2022-12-20T08:54:34;8.57;;;3.40;;
15915;SDS011;8057;47.830;-3.870;2022-12-20T08:58:44;10.37;;;4.43;;
15915;SDS011;8057;47.830;-3.870;2022-12-20T09:02:53;8.23;;;5.13;;
15915;SDS011;8057;47.830;-3.870;2022-12-20T09:07:03;8.07;;;5.00;;
15915;SDS011;8057;47.830;-3.870;2022-12-20T09:11:15;9.83;;;5.20;;
15915;SDS011;8057;47.830;-3.870;2022-12-20T09:15:26;6.33;;;4.53;;
15915;SDS011;8057;47.830;-3.870;2022-12-20T09:19:35;5.47;;;3.67;;
15915;SDS011;8057;47.830;-3.870;2022-12-20T09:23:45;5.27;;;3.20;;
15915;SDS011;8057;47.830;-3.870;2022-12-20T09:27:56;3.57;;;3.20;;
15915;SDS011;8057;47.830;-3.870;2022-12-20T09:32:05;2.60;;;2.40;;
15915;SDS011;8057;47.830;-3.870;2022-12-20T09:36:19;2.10;;;1.90;;
15915;SDS011;8057;47.830;-3.870;2022-12-20T09:40:48;44.17;;;4.20;;
15915;SDS011;8057;47.830;-3.870;2022-12-20T09:45:07;7.47;;;3.20;;
15915;SDS011;8057;47.830;-3.870;2022-12-20T09:49:24;5.90;;;3.47;;
15915;SDS011;8057;47.830;-3.870;2022-12-20T09:53:58;11.67;;;5.23;;
15915;SDS011;8057;47.830;-3.870;2022-12-20T09:58:22;6.60;;;4.93;;
15915;SDS011;8057;47.830;-3.870;2022-12-20T10:08:05;9.57;;;5.10;;
15915;SDS011;8057;47.830;-3.870;2022-12-20T10:17:14;7.33;;;4.73;;
15915;SDS011;8057;47.830;-3.870;2022-12-20T10:21:42;8.03;;;5.00;;
15915;SDS011;8057;47.830;-3.870;2022-12-20T10:26:46;8.60;;;5.20;;
15915;SDS011;8057;47.830;-3.870;2022-12-20T10:36:35;11.80;;;5.03;;
15915;SDS011;8057;47.830;-3.870;2022-12-20T10:45:35;6.93;;;3.97;;
15915;SDS011;8057;47.830;-3.870;2022-12-20T10:50:12;4.70;;;2.40;;
15915;SDS011;8057;47.830;-3.870;2022-12-20T10:54:36;6.57;;;2.50;;
15915;SDS011;8057;47.830;-3.870;2022-12-20T10:59:32;6.73;;;2.03;;
15915;SDS011;8057;47.830;-3.870;2022-12-20T11:03:52;5.40;;;2.33;;
15915;SDS011;8057;47.830;-3.870;2022-12-20T11:08:11;4.87;;;2.30;;
15915;SDS011;8057;47.830;-3.870;2022-12-20T11:12:51;4.10;;;2.30;;
15915;SDS011;8057;47.830;-3.870;2022-12-20T11:17:12;5.93;;;2.80;;
15915;SDS011;8057;47.830;-3.870;2022-12-20T11:21:31;5.73;;;2.90;;
15915;SDS011;8057;47.830;-3.870;2022-12-20T14:01:09;10.23;;;4.27;;
15915;SDS011;8057;47.830;-3.870;2022-12-20T14:05:42;11.60;;;4.60;;
15915;SDS011;8057;47.830;-3.870;2022-12-20T19:40:11;11.93;;;9.53;;
15915;SDS011;8057;47.830;-3.870;2022-12-20T19:44:24;15.50;;;10.30;;
15915;SDS011;8057;47.830;-3.870;2022-12-20T19:48:34;15.37;;;9.20;;
15915;SDS011;8057;47.830;-3.870;2022-12-20T19:52:51;15.77;;;8.70;;
15915;SDS011;8057;47.830;-3.870;2022-12-20T19:57:07;14.20;;;9.57;;
15915;SDS011;8057;47.830;-3.870;2022-12-20T20:01:18;17.93;;;7.37;;
15915;SDS011;8057;47.830;-3.870;2022-12-20T20:05:41;15.47;;;6.40;;
15915;SDS011;8057;47.830;-3.870;2022-12-20T20:09:53;10.27;;;5.07;;
15915;SDS011;8057;47.830;-3.870;2022-12-20T20:18:45;9.47;;;3.33;;
15915;SDS011;8057;47.830;-3.870;2022-12-20T20:23:02;13.33;;;4.17;;
15915;SDS011;8057;47.830;-3.870;2022-12-20T20:27:12;12.80;;;4.03;;
15915;SDS011;8057;47.830;-3.870;2022-12-20T20:31:41;21.93;;;4.50;;
15915;SDS011;8057;47.830;-3.870;2022-12-20T20:36:15;13.07;;;3.60;;
15915;SDS011;8057;47.830;-3.870;2022-12-20T20:41:38;15.00;;;2.90;;
15915;SDS011;8057;47.830;-3.870;2022-12-20T20:46:24;17.00;;;2.77;;
15915;SDS011;8057;47.830;-3.870;2022-12-20T20:51:24;10.17;;;2.00;;
15915;SDS011;8057;47.830;-3.870;2022-12-20T20:55:41;7.60;;;2.20;;
15915;SDS011;8057;47.830;-3.870;2022-12-20T20:59:59;11.60;;;2.30;;
15915;SDS011;8057;47.830;-3.870;2022-12-20T21:04:28;11.73;;;2.27;;
15915;SDS011;8057;47.830;-3.870;2022-12-20T21:13:39;11.73;;;2.30;;
15915;SDS011;8057;47.830;-3.870;2022-12-20T21:18:19;10.83;;;2.50;;
15915;SDS011;8057;47.830;-3.870;2022-12-20T21:22:47;13.20;;;2.40;;
15915;SDS011;8057;47.830;-3.870;2022-12-20T21:47:16;11.70;;;1.87;;
15915;SDS011;8057;47.830;-3.870;2022-12-20T21:52:31;9.03;;;2.03;;
15915;SDS011;8057;47.830;-3.870;2022-12-20T21:56:43;8.33;;;1.70;;
15915;SDS011;8057;47.830;-3.870;2022-12-20T22:00:55;9.67;;;2.60;;
15915;SDS011;8057;47.830;-3.870;2022-12-20T22:10:19;8.90;;;1.77;;
15915;SDS011;8057;47.830;-3.870;2022-12-20T22:14:31;7.70;;;2.10;;
15915;SDS011;8057;47.830;-3.870;2022-12-20T22:18:41;10.90;;;2.20;;
15915;SDS011;8057;47.830;-3.870;2022-12-20T22:23:02;8.70;;;2.00;;
15915;SDS011;8057;47.830;-3.870;2022-12-20T22:27:36;8.23;;;1.97;;
15915;SDS011;8057;47.830;-3.870;2022-12-20T22:31:45;9.87;;;1.90;;
15915;SDS011;8057;47.830;-3.870;2022-12-20T22:36:20;15.00;;;2.93;;
15915;SDS011;8057;47.830;-3.870;2022-12-20T22:40:44;15.33;;;3.47;;
15915;SDS011;8057;47.830;-3.870;2022-12-20T22:45:17;15.27;;;3.70;;
15915;SDS011;8057;47.830;-3.870;2022-12-20T22:50:09;14.47;;;3.13;;
15915;SDS011;8057;47.830;-3.870;2022-12-20T22:54:22;7.93;;;2.50;;
15915;SDS011;8057;47.830;-3.870;2022-12-20T22:58:34;19.73;;;3.23;;
15915;SDS011;8057;47.830;-3.870;2022-12-20T23:02:48;15.93;;;3.47;;
15915;SDS011;8057;47.830;-3.870;2022-12-20T23:06:58;13.37;;;3.07;;
15915;SDS011;8057;47.830;-3.870;2022-12-20T23:11:15;15.17;;;3.57;;
15915;SDS011;8057;47.830;-3.870;2022-12-20T23:15:45;15.57;;;3.10;;
15915;SDS011;8057;47.830;-3.870;2022-12-20T23:24:58;20.20;;;3.93;;
15915;SDS011;8057;47.830;-3.870;2022-12-20T23:29:43;18.27;;;3.80;;
15915;SDS011;8057;47.830;-3.870;2022-12-20T23:34:03;14.97;;;3.60;;
15915;SDS011;8057;47.830;-3.870;2022-12-20T23:38:19;10.60;;;2.60;;
15915;SDS011;8057;47.830;-3.870;2022-12-20T23:42:43;9.27;;;1.80;;
15915;SDS011;8057;47.830;-3.870;2022-12-20T23:47:17;7.60;;;1.50;;
15915;SDS011;8057;47.830;-3.870;2022-12-20T23:51:45;9.50;;;2.57;;
15915;SDS011;8057;47.830;-3.870;2022-12-20T23:56:44;8.13;;;1.97;;
